KAFO/AFO METAR and TAF weather

Enter ICAO airport designator
Station Type Date Time Source
KAFO METAR 2019/08/24 19:55 UTC NOAA

KAFO 241955Z AUTO 30009KT 10SM CLR 25/03 A3013 RMK AO2


Station Type Date Time Source
KAFO Decoded METAR 2019/08/24 19:55 UTC NOAA

Station name not available
Aug 24, 2019 - 03:55 PM EDT / 2019.08.24 1955 UTC
Wind: from the WNW (300 degrees) at 10 MPH (9 KT):0
Visibility: 10 mile(s):0
Sky conditions: clear
Temperature: 77 F (25 C)
Dew Point: 37 F (3 C)
Relative Humidity: 23%
Pressure (altimeter): 30.13 in. Hg (1020 hPa)
ob: KAFO 241955Z AUTO 30009KT 10SM CLR 25/03 A3013 RMK AO2
cycle: 20

Station Type Date Time Source
KAFO TAF UTC NOAA

Error!

Example: see airport list